Selma, Texas
Current Conditions -  °F | °C
As of 7:58 PM on Saturday 25 Oct 2014 (Local Time) from KRND Reporting Station
Clear Clear  
Wind Chill: 73°   Ceiling: Unl
Heat Index: 73°   Visibility: 10mi
Dew Point: 55°   Wind: 7mph
Humidity: 53%   Direction: 170°S
Pressure: 30.09"   Gusts: NA
Location:  29.5872°N, 98.2801°W
Report Text: KRND 260058Z AUTO 17006KT 10SM CLR 23/13 A3009 RMK AO2 SLP184 T02300129
Loading
Personal Weather Stations






























Interactive Weather Map
Tropical Storm Tracking
New forecast layout! Learn more

10-Day Weather Forecast

Advertisements
Track Severe Weather on mobile